createdAt,value
2018-05-03T00:02:17.164Z,4.30
2018-05-03T00:21:55.663Z,4.73
2018-05-03T00:24:23.066Z,4.50
2018-05-03T00:26:50.463Z,4.70
2018-05-03T00:29:17.883Z,5.07
2018-05-03T00:31:45.292Z,4.70
2018-05-03T00:34:12.698Z,4.43
2018-05-03T00:44:01.009Z,4.80
2018-05-03T01:11:02.641Z,4.60
2018-05-03T01:30:41.951Z,5.05
2018-05-03T01:33:10.114Z,4.97
2018-05-03T01:35:50.230Z,4.80
2018-05-03T02:12:37.475Z,4.93
2018-05-03T02:15:05.666Z,4.93
2018-05-03T02:17:33.072Z,4.93
2018-05-03T02:20:00.471Z,5.30
2018-05-03T02:22:27.907Z,4.80
2018-05-03T02:56:52.782Z,5.30
2018-05-03T03:10:46.662Z,5.90
2018-05-03T03:16:39.147Z,5.60
2018-05-03T03:19:25.132Z,5.30
2018-05-03T03:22:11.094Z,5.33
2018-05-03T03:24:51.247Z,5.60
2018-05-03T03:27:36.179Z,5.90
2018-05-03T03:30:36.001Z,5.97
2018-05-03T03:33:15.982Z,6.33
2018-05-03T03:36:04.210Z,5.87
2018-05-03T03:38:58.292Z,5.37
2018-05-03T03:41:36.514Z,5.30
2018-05-03T03:44:15.895Z,5.80
2018-05-03T04:31:11.857Z,6.55
2018-05-03T04:36:07.003Z,6.60
2018-05-03T04:45:55.432Z,6.77
2018-05-03T04:48:22.870Z,6.90
2018-05-03T04:50:50.254Z,6.70
2018-05-03T04:53:18.431Z,7.20
2018-05-03T04:55:46.634Z,7.20
2018-05-03T04:58:14.031Z,7.50
2018-05-03T05:00:42.216Z,6.80
2018-05-03T05:05:36.895Z,7.17
2018-05-03T05:08:04.305Z,6.47
2018-05-03T05:10:32.573Z,6.03
2018-05-03T05:20:20.795Z,6.40
2018-05-03T05:22:48.978Z,6.27
2018-05-03T05:25:16.431Z,6.25
2018-05-03T05:27:43.839Z,6.47
2018-05-03T05:35:06.795Z,5.83
2018-05-03T05:37:34.214Z,6.23
2018-05-03T05:40:02.387Z,6.17
2018-05-03T05:42:29.806Z,6.40
2018-05-03T05:44:57.223Z,5.90
2018-05-03T05:47:24.631Z,6.53
2018-05-03T05:49:52.042Z,5.93
2018-05-03T05:54:47.979Z,6.10
2018-05-03T05:57:15.393Z,6.20
2018-05-03T05:59:43.571Z,6.57
2018-05-03T06:02:10.974Z,6.37
2018-05-03T06:04:38.392Z,5.77
2018-05-03T06:07:05.815Z,6.30
2018-05-03T06:09:33.252Z,6.20
2018-05-03T06:12:00.630Z,5.93
2018-05-03T06:14:28.034Z,6.10
2018-05-03T06:16:55.448Z,6.10
2018-05-03T06:19:22.874Z,6.40
2018-05-03T06:21:51.046Z,5.80
2018-05-03T06:24:18.450Z,5.77
2018-05-03T06:29:12.849Z,6.07
2018-05-03T06:31:41.028Z,6.23
2018-05-03T06:34:08.427Z,6.60
2018-05-03T06:36:35.836Z,5.87
2018-05-03T06:39:03.250Z,6.63
2018-05-03T06:41:30.651Z,5.70
2018-05-03T06:43:58.062Z,4.90
2018-05-03T06:46:25.466Z,4.90
2018-05-03T06:48:52.891Z,5.00
2018-05-03T06:51:21.060Z,5.90
2018-05-03T06:53:48.467Z,6.07
2018-05-03T06:56:15.983Z,5.77
2018-05-03T06:58:43.386Z,5.90
2018-05-03T07:01:10.803Z,5.53
2018-05-03T07:03:38.206Z,5.80
2018-05-03T07:06:05.618Z,5.67
2018-05-03T07:08:33.023Z,4.87
2018-05-03T07:13:27.397Z,5.10
2018-05-03T07:15:54.799Z,5.50
2018-05-03T07:18:22.208Z,5.80
2018-05-03T07:20:49.611Z,5.47
2018-05-03T07:23:17.023Z,4.97
2018-05-03T07:25:44.426Z,5.03
2018-05-03T07:28:11.835Z,5.13
2018-05-03T07:30:39.260Z,5.00
2018-05-03T07:33:06.659Z,5.67
2018-05-03T07:35:34.063Z,5.63
2018-05-03T07:38:01.479Z,5.27
2018-05-03T07:40:28.909Z,5.13
2018-05-03T07:42:56.307Z,5.43
2018-05-03T07:45:24.487Z,4.95
2018-05-03T07:50:18.860Z,5.17
2018-05-03T07:52:46.262Z,5.23
2018-05-03T07:55:14.440Z,4.63
2018-05-03T08:00:08.805Z,4.87
2018-05-03T08:02:36.970Z,5.60
2018-05-03T08:14:54.534Z,5.40
2018-05-03T08:19:48.895Z,5.27
2018-05-03T08:24:43.260Z,4.90
2018-05-03T08:29:38.423Z,4.80
2018-05-03T08:32:05.868Z,4.87
2018-05-03T08:34:33.267Z,4.07
2018-05-03T08:37:00.695Z,4.00
2018-05-03T08:39:28.099Z,3.90
2018-05-03T08:41:55.523Z,3.97
2018-05-03T08:44:23.686Z,3.77
2018-05-03T08:46:51.098Z,4.20
2018-05-03T08:49:18.550Z,4.30
2018-05-03T08:51:45.937Z,4.10
2018-05-03T08:54:13.339Z,4.60
2018-05-03T08:56:41.516Z,4.47
2018-05-03T08:59:08.911Z,4.37
2018-05-03T09:01:36.397Z,4.30
2018-05-03T09:04:03.738Z,4.63
2018-05-03T09:06:31.894Z,4.80
2018-05-03T09:11:26.283Z,4.85
2018-05-03T09:13:53.731Z,4.73
2018-05-03T09:16:21.139Z,4.60
2018-05-03T09:18:49.308Z,5.10
2018-05-03T09:21:16.714Z,4.95
2018-05-03T09:23:44.149Z,4.90
2018-05-03T09:36:01.703Z,5.17
2018-05-03T09:38:29.892Z,4.80
2018-05-03T09:40:57.274Z,5.37
2018-05-03T09:43:24.687Z,5.60
2018-05-03T09:45:52.087Z,4.77
2018-05-03T09:48:19.504Z,5.17
2018-05-03T09:53:15.398Z,4.60
2018-05-03T09:55:42.804Z,5.07
2018-05-03T10:00:37.176Z,6.00
2018-05-03T10:03:04.586Z,4.90
2018-05-03T10:05:31.982Z,5.33
2018-05-03T10:07:59.382Z,5.20
2018-05-03T10:10:26.806Z,5.60
2018-05-03T10:12:54.243Z,5.70
2018-05-03T10:15:21.644Z,5.87
2018-05-03T10:17:49.051Z,5.83
2018-05-03T10:20:16.454Z,5.77
2018-05-03T10:22:44.627Z,5.03
2018-05-03T10:27:38.997Z,6.00
2018-05-03T10:30:06.421Z,5.83
2018-05-03T10:32:33.815Z,5.60
2018-05-03T10:35:01.222Z,5.90
2018-05-03T10:37:28.628Z,5.90
2018-05-03T10:39:56.055Z,6.80
2018-05-03T10:42:23.451Z,6.20
2018-05-03T10:44:50.858Z,5.47
2018-05-03T10:47:18.267Z,5.07
2018-05-03T10:49:45.680Z,4.77
2018-05-03T10:54:40.061Z,5.27
2018-05-03T10:59:34.422Z,5.80
2018-05-03T11:02:01.823Z,5.60
2018-05-03T11:06:56.217Z,4.65
2018-05-03T11:14:17.546Z,5.00
2018-05-03T11:19:11.894Z,4.57
2018-05-03T11:26:33.238Z,4.70
2018-05-03T11:31:27.705Z,4.57
2018-05-03T11:33:55.082Z,4.30
2018-05-03T11:36:22.463Z,4.70
2018-05-03T11:38:49.862Z,4.67
2018-05-03T11:43:44.238Z,4.37
2018-05-03T11:46:11.653Z,4.30
2018-05-03T11:48:39.055Z,4.83
2018-05-03T11:53:33.418Z,4.50
2018-05-03T11:56:00.834Z,4.33
2018-05-03T12:00:56.002Z,4.70
2018-05-03T12:03:23.418Z,4.70
2018-05-03T12:05:50.823Z,3.75
2018-05-03T12:08:19.002Z,4.30
2018-05-03T12:10:46.415Z,4.37
2018-05-03T12:18:08.503Z,4.20
2018-05-03T12:20:35.915Z,4.33
2018-05-03T12:23:03.325Z,4.67
2018-05-03T12:27:58.551Z,4.63
2018-05-03T12:30:25.946Z,4.80
2018-05-03T12:32:54.119Z,4.30
2018-05-03T12:35:21.531Z,4.97
2018-05-03T12:37:48.961Z,4.30
2018-05-03T12:40:16.358Z,4.57
2018-05-03T12:42:43.796Z,4.50
2018-05-03T12:45:11.955Z,4.40
2018-05-03T12:47:39.347Z,4.00
2018-05-03T12:52:33.714Z,4.10
2018-05-03T12:55:01.124Z,4.20
2018-05-03T12:57:28.547Z,3.70
2018-05-03T12:59:55.963Z,4.93
2018-05-03T13:02:24.138Z,5.17
2018-05-03T13:04:51.546Z,4.00
2018-05-03T13:07:18.973Z,5.00
2018-05-03T13:09:46.374Z,4.20
2018-05-03T13:12:13.774Z,4.90
2018-05-03T13:14:41.170Z,4.87
2018-05-03T13:19:35.552Z,5.63
2018-05-03T13:24:29.912Z,4.93
2018-05-03T13:29:24.279Z,5.10
2018-05-03T13:31:51.683Z,4.67
2018-05-03T13:34:19.874Z,5.17
2018-05-03T13:36:47.280Z,5.00
2018-05-03T13:39:15.450Z,5.20
2018-05-03T13:41:42.879Z,4.80
2018-05-03T13:44:10.286Z,5.30
2018-05-03T13:46:37.686Z,4.63
2018-05-03T13:49:05.107Z,5.37
2018-05-03T13:51:33.278Z,5.40
2018-05-03T13:54:00.692Z,5.07
2018-05-03T13:58:55.071Z,4.90
2018-05-03T14:01:23.263Z,4.73
2018-05-03T14:03:50.663Z,4.90
2018-05-03T14:06:18.071Z,4.47
2018-05-03T14:08:45.491Z,4.87
2018-05-03T14:13:39.846Z,5.23
2018-05-03T14:16:07.262Z,4.40
2018-05-03T14:18:34.673Z,5.00
2018-05-03T14:21:02.148Z,4.90
2018-05-03T14:23:29.493Z,4.67
2018-05-03T14:25:57.666Z,4.10
2018-05-03T14:30:52.029Z,4.30
2018-05-03T14:33:20.193Z,4.27
2018-05-03T14:35:47.602Z,4.50
2018-05-03T14:38:15.023Z,4.57
2018-05-03T14:43:09.397Z,4.10
2018-05-03T14:45:36.791Z,4.07
2018-05-03T14:48:04.223Z,3.57
2018-05-03T14:52:59.371Z,3.80
2018-05-03T14:55:26.774Z,3.13
2018-05-03T14:57:54.234Z,3.37
2018-05-03T15:00:21.659Z,3.45
2018-05-03T15:02:49.058Z,3.03
2018-05-03T15:10:10.395Z,3.53
2018-05-03T15:12:37.793Z,3.20
2018-05-03T15:15:05.210Z,3.13
2018-05-03T15:17:32.623Z,3.27
2018-05-03T15:20:00.027Z,3.30
2018-05-03T15:22:27.437Z,2.80
2018-05-03T15:24:54.845Z,2.70
2018-05-03T15:27:22.244Z,2.70
2018-05-03T15:29:49.647Z,3.03
2018-05-03T15:32:17.078Z,3.20
2018-05-03T15:34:44.499Z,3.00
2018-05-03T15:37:11.902Z,2.80
2018-05-03T15:39:39.299Z,2.70
2018-05-03T15:42:06.711Z,2.93
2018-05-03T15:44:34.943Z,3.03
2018-05-03T15:47:02.357Z,2.70
2018-05-03T15:51:56.734Z,3.23
2018-05-03T15:54:24.130Z,2.37
2018-05-03T15:56:51.551Z,2.40
2018-05-03T15:59:18.967Z,2.80
2018-05-03T16:01:46.367Z,3.00
2018-05-03T16:11:35.453Z,2.70
2018-05-03T16:14:02.854Z,2.90
2018-05-03T16:16:30.267Z,2.87
2018-05-03T16:23:51.595Z,2.40
2018-05-03T16:26:19.004Z,2.63
2018-05-03T16:28:46.403Z,2.97
2018-05-03T16:33:41.161Z,2.70
2018-05-03T16:36:08.566Z,2.70
2018-05-03T16:41:02.938Z,2.47
2018-05-03T16:43:30.353Z,2.50
2018-05-03T16:48:24.719Z,2.87
2018-05-03T16:50:52.122Z,2.47
2018-05-03T16:53:19.526Z,2.70
2018-05-03T16:55:47.711Z,2.40
2018-05-03T17:00:42.848Z,2.43
2018-05-03T17:03:10.263Z,2.80
2018-05-03T17:12:58.557Z,2.60
2018-05-03T17:15:25.947Z,2.60
2018-05-03T17:17:53.378Z,3.00
2018-05-03T17:20:20.784Z,2.57
2018-05-03T17:22:48.955Z,2.87
2018-05-03T17:27:44.114Z,2.70
2018-05-03T17:32:39.226Z,2.50
2018-05-03T17:35:07.394Z,2.60
2018-05-03T17:42:28.723Z,2.70
2018-05-03T17:52:17.001Z,2.50
2018-05-03T18:02:06.839Z,2.50
2018-05-03T18:04:34.290Z,2.57
2018-05-03T18:07:01.658Z,2.50
2018-05-03T18:09:29.827Z,2.30
2018-05-03T18:11:57.999Z,2.87
2018-05-03T18:14:25.411Z,2.57
2018-05-03T18:16:52.815Z,2.30
2018-05-03T18:19:20.226Z,2.47
2018-05-03T18:21:47.647Z,2.60
2018-05-03T18:24:15.839Z,2.70
2018-05-03T18:26:43.242Z,2.40
2018-05-03T18:29:11.415Z,2.63
2018-05-03T18:31:38.815Z,2.40
2018-05-03T18:34:06.293Z,2.70
2018-05-03T18:36:33.619Z,2.53
2018-05-03T18:39:01.056Z,2.77
2018-05-03T18:41:28.450Z,2.53
2018-05-03T18:43:55.868Z,2.70
2018-05-03T18:56:11.866Z,3.30
2018-05-03T18:58:39.270Z,3.70
2018-05-03T19:01:07.519Z,3.50
2018-05-03T19:03:35.623Z,3.50
2018-05-03T19:10:56.962Z,3.40
2018-05-03T19:13:24.453Z,3.43
2018-05-03T19:15:51.770Z,3.70
2018-05-03T19:18:19.400Z,3.80
2018-05-03T19:20:46.861Z,3.90
2018-05-03T19:23:14.249Z,3.80
2018-05-03T19:25:42.494Z,3.80
2018-05-03T19:28:09.923Z,4.07
2018-05-03T19:30:37.321Z,4.00
2018-05-03T19:33:04.732Z,3.87
2018-05-03T19:35:32.194Z,3.93
2018-05-03T19:37:59.538Z,3.83
2018-05-03T19:40:26.951Z,3.90
2018-05-03T19:45:21.319Z,3.67
2018-05-03T19:50:15.689Z,3.40
2018-05-03T19:52:43.091Z,3.67
2018-05-03T19:55:11.254Z,3.50
2018-05-03T20:00:06.387Z,3.20
2018-05-03T20:02:33.792Z,3.43
2018-05-03T20:05:01.970Z,3.40
2018-05-03T20:07:29.398Z,3.40
2018-05-03T20:12:23.783Z,3.50
2018-05-03T20:14:51.186Z,3.20
2018-05-03T20:17:19.350Z,3.73
2018-05-03T20:19:46.761Z,3.50
2018-05-03T20:22:14.164Z,3.20
2018-05-03T20:24:41.573Z,3.60
2018-05-03T20:27:09.735Z,3.20
2018-05-03T20:29:37.910Z,3.10
2018-05-03T20:34:32.270Z,2.87
2018-05-03T20:36:59.681Z,3.20
2018-05-03T20:39:27.085Z,3.33
2018-05-03T20:44:21.442Z,2.77
2018-05-03T20:46:48.842Z,2.90
2018-05-03T20:54:12.522Z,2.80
2018-05-03T20:56:40.702Z,3.00
2018-05-03T21:01:35.079Z,2.67
2018-05-03T21:04:02.486Z,2.90
2018-05-03T21:11:24.578Z,2.93
2018-05-03T21:18:47.454Z,3.23
2018-05-03T21:21:15.624Z,2.87
2018-05-03T21:23:43.054Z,2.73
2018-05-03T21:31:05.147Z,3.00
2018-05-03T21:43:21.192Z,3.03
2018-05-03T21:45:48.612Z,3.10
2018-05-03T21:48:16.004Z,3.73
2018-05-03T21:53:10.390Z,3.40
2018-05-03T21:55:38.562Z,2.80
2018-05-03T22:07:56.150Z,3.00
2018-05-03T22:17:45.376Z,3.00
2018-05-03T22:20:12.782Z,3.10
2018-05-03T22:37:23.882Z,2.97
2018-05-03T22:39:51.290Z,2.77
2018-05-03T22:49:42.016Z,3.30
2018-05-03T22:59:32.040Z,4.30
2018-05-03T23:02:00.219Z,4.63
2018-05-03T23:04:27.622Z,4.63
2018-05-03T23:06:55.027Z,4.13
2018-05-03T23:11:50.175Z,4.20
2018-05-03T23:14:18.350Z,3.50
2018-05-03T23:16:45.767Z,4.20
2018-05-03T23:24:08.627Z,4.10
2018-05-03T23:26:36.059Z,4.40
2018-05-03T23:29:04.259Z,4.83
2018-05-03T23:31:31.660Z,4.90
2018-05-03T23:43:48.492Z,5.07
2018-05-03T23:46:15.899Z,4.83
2018-05-03T23:48:44.349Z,4.90
2018-05-03T23:51:11.704Z,5.00
2018-05-03T23:53:39.878Z,4.80
2018-05-03T23:56:07.291Z,4.80
